createdAt,value
2022-11-11T00:02:01.889Z,12.57
2022-11-11T00:04:29.854Z,15.00
2022-11-11T00:06:57.894Z,15.53
2022-11-11T00:09:25.938Z,15.40
2022-11-11T00:11:55.226Z,8.87
2022-11-11T00:14:23.218Z,16.43
2022-11-11T00:17:08.847Z,16.70
2022-11-11T00:19:54.969Z,13.80
2022-11-11T00:22:40.837Z,25.70
2022-11-11T00:25:10.317Z,20.53
2022-11-11T00:27:40.766Z,17.10
2022-11-11T00:30:10.830Z,13.23
2022-11-11T00:32:38.821Z,15.83
2022-11-11T00:35:24.880Z,16.57
2022-11-11T00:37:52.873Z,11.93
2022-11-11T00:40:20.920Z,24.43
2022-11-11T00:42:50.205Z,22.30
2022-11-11T00:45:18.443Z,13.07
2022-11-11T00:48:03.849Z,11.50
2022-11-11T00:50:49.688Z,16.80
2022-11-11T00:53:25.056Z,17.57
2022-11-11T00:55:54.918Z,18.60
2022-11-11T00:58:25.529Z,17.37
2022-11-11T01:00:54.483Z,16.03
2022-11-11T01:03:24.127Z,22.33
2022-11-11T01:05:52.195Z,21.93
2022-11-11T01:08:20.323Z,16.30
2022-11-11T01:10:49.637Z,18.93
2022-11-11T01:13:20.968Z,16.93
2022-11-11T01:15:53.745Z,18.23
2022-11-11T01:18:25.617Z,12.27
2022-11-11T01:21:01.888Z,24.60
2022-11-11T01:23:31.754Z,14.90
2022-11-11T01:26:04.404Z,22.60
2022-11-11T01:28:33.186Z,10.50
2022-11-11T01:31:08.853Z,11.50
2022-11-11T01:33:37.829Z,14.63
2022-11-11T01:40:06.957Z,25.20
2022-11-11T01:42:48.595Z,26.63
2022-11-11T01:45:50.399Z,22.63
2022-11-11T01:48:44.050Z,26.80
2022-11-11T01:51:21.179Z,20.23
2022-11-11T01:53:55.334Z,21.37
2022-11-11T01:56:23.954Z,28.80
2022-11-11T01:58:57.371Z,32.43
2022-11-11T02:01:25.670Z,36.20
2022-11-11T02:04:15.312Z,42.07
2022-11-11T02:06:43.872Z,67.80
2022-11-11T02:09:12.611Z,45.17
2022-11-11T02:12:00.482Z,22.00
2022-11-11T02:14:38.065Z,31.20
2022-11-11T02:17:10.117Z,23.93
2022-11-11T02:19:47.892Z,18.70
2022-11-11T02:22:25.593Z,23.20
2022-11-11T02:24:56.801Z,16.70
2022-11-11T02:27:28.154Z,13.80
2022-11-11T02:29:59.506Z,16.17
2022-11-11T02:32:27.480Z,16.50
2022-11-11T02:34:55.647Z,20.00
2022-11-11T02:37:27.165Z,10.37
2022-11-11T02:40:04.742Z,13.10
2022-11-11T02:42:36.138Z,11.13
2022-11-11T02:45:04.757Z,16.60
2022-11-11T02:47:32.807Z,13.10
2022-11-11T02:50:00.988Z,13.37
2022-11-11T02:52:29.494Z,13.87
2022-11-11T02:54:59.083Z,11.20
2022-11-11T02:57:27.720Z,8.80
2022-11-11T02:59:57.140Z,10.43
2022-11-11T03:02:27.367Z,11.20
2022-11-11T03:04:55.787Z,18.23
2022-11-11T03:07:25.058Z,10.60
2022-11-11T03:09:53.328Z,9.67
2022-11-11T03:12:22.881Z,9.93
2022-11-11T03:14:50.914Z,11.53
2022-11-11T03:17:36.399Z,8.60
2022-11-11T03:20:22.619Z,9.93
2022-11-11T03:23:02.369Z,8.03
2022-11-11T03:25:39.246Z,8.57
2022-11-11T03:28:10.908Z,7.47
2022-11-11T03:30:40.142Z,13.93
2022-11-11T03:33:08.510Z,10.30
2022-11-11T03:35:36.828Z,7.07
2022-11-11T03:38:24.768Z,11.37
2022-11-11T03:40:56.226Z,7.80
2022-11-11T03:43:27.918Z,14.47
2022-11-11T03:45:58.229Z,24.10
2022-11-11T03:48:29.671Z,6.90
2022-11-11T03:50:57.615Z,7.83
2022-11-11T03:53:26.424Z,5.67
2022-11-11T03:55:54.650Z,8.40
2022-11-11T03:58:23.655Z,4.80
2022-11-11T04:00:54.245Z,11.23
2022-11-11T04:03:39.934Z,5.47
2022-11-11T04:06:28.087Z,6.67
2022-11-11T04:09:13.703Z,7.10
2022-11-11T04:11:43.865Z,9.20
2022-11-11T04:14:31.528Z,7.73
2022-11-11T04:17:00.861Z,7.27
2022-11-11T04:19:46.492Z,16.50
2022-11-11T04:22:14.465Z,3.00
2022-11-11T04:25:00.090Z,12.13
2022-11-11T04:27:28.060Z,10.83
2022-11-11T04:29:55.058Z,4.80
2022-11-11T04:32:38.294Z,3.73
2022-11-11T04:35:10.858Z,5.80
2022-11-11T04:37:47.005Z,11.53
2022-11-11T04:40:33.322Z,7.00
2022-11-11T04:43:01.338Z,5.93
2022-11-11T04:45:28.678Z,13.80
2022-11-11T04:48:00.346Z,4.43
2022-11-11T04:50:31.765Z,8.77
2022-11-11T04:53:00.123Z,11.03
2022-11-11T04:55:46.044Z,4.97
2022-11-11T04:58:14.481Z,12.33
2022-11-11T05:00:42.805Z,10.80
2022-11-11T05:03:16.116Z,9.10
2022-11-11T05:06:03.617Z,7.03
2022-11-11T05:08:51.796Z,5.43
2022-11-11T05:11:20.935Z,3.43
2022-11-11T05:14:06.683Z,10.57
2022-11-11T05:16:57.060Z,5.83
2022-11-11T05:19:43.926Z,9.43
2022-11-11T05:22:17.846Z,11.30
2022-11-11T05:25:03.803Z,5.93
2022-11-11T05:27:31.788Z,5.50
2022-11-11T05:29:59.905Z,6.00
2022-11-11T05:32:28.049Z,6.60
2022-11-11T05:34:57.428Z,11.13
2022-11-11T05:37:25.457Z,12.47
2022-11-11T05:39:53.627Z,5.23
2022-11-11T05:42:21.664Z,7.20
2022-11-11T05:44:50.072Z,7.10
2022-11-11T05:47:18.639Z,4.17
2022-11-11T05:49:46.710Z,4.33
2022-11-11T05:52:17.835Z,8.23
2022-11-11T05:54:46.292Z,6.50
2022-11-11T05:57:14.331Z,9.63
2022-11-11T05:59:42.310Z,4.13
2022-11-11T06:02:10.818Z,3.70
2022-11-11T06:04:38.892Z,4.13
2022-11-11T06:07:06.960Z,4.90
2022-11-11T06:09:36.326Z,2.53
2022-11-11T06:12:04.693Z,9.47
2022-11-11T06:14:32.668Z,7.63
2022-11-11T06:17:00.605Z,3.53
2022-11-11T06:19:28.594Z,8.03
2022-11-11T06:22:00.881Z,8.20
2022-11-11T06:24:29.080Z,5.80
2022-11-11T06:26:58.482Z,7.53
2022-11-11T06:29:26.465Z,4.53
2022-11-11T06:31:54.539Z,6.80
2022-11-11T06:34:22.555Z,5.37
2022-11-11T06:36:50.507Z,10.07
2022-11-11T06:39:18.458Z,6.77
2022-11-11T06:41:46.416Z,7.80
2022-11-11T06:44:15.762Z,7.60
2022-11-11T06:46:43.742Z,7.40
2022-11-11T06:49:12.193Z,7.77
2022-11-11T06:51:40.164Z,7.13
2022-11-11T06:54:08.437Z,7.43
2022-11-11T06:56:36.588Z,21.07
2022-11-11T06:59:04.586Z,8.53
2022-11-11T07:01:33.979Z,9.70
2022-11-11T07:04:02.035Z,11.63
2022-11-11T07:06:33.047Z,15.07
2022-11-11T07:09:01.143Z,5.70
2022-11-11T07:11:29.126Z,7.87
2022-11-11T07:13:57.410Z,5.70
2022-11-11T07:16:25.458Z,5.47
2022-11-11T07:18:55.009Z,13.40
2022-11-11T07:21:23.003Z,11.43
2022-11-11T07:23:50.998Z,12.30
2022-11-11T07:26:18.962Z,14.23
2022-11-11T07:28:47.055Z,7.43
2022-11-11T07:31:14.973Z,8.83
2022-11-11T07:33:43.020Z,6.70
2022-11-11T07:36:12.445Z,9.40
2022-11-11T07:38:40.416Z,5.50
2022-11-11T07:41:08.408Z,5.23
2022-11-11T07:43:36.368Z,11.00
2022-11-11T07:46:04.441Z,9.37
2022-11-11T07:48:32.461Z,10.43
2022-11-11T07:51:00.618Z,8.00
2022-11-11T07:53:30.000Z,9.10
2022-11-11T07:55:58.024Z,6.65
2022-11-11T07:58:26.410Z,10.50
2022-11-11T08:00:54.623Z,8.77
2022-11-11T08:03:23.109Z,7.37
2022-11-11T08:05:51.309Z,4.20
2022-11-11T08:08:25.333Z,7.77
2022-11-11T08:10:57.020Z,16.47
2022-11-11T08:13:43.469Z,4.13
2022-11-11T08:16:13.508Z,21.10
2022-11-11T08:18:42.436Z,3.03
2022-11-11T08:21:10.446Z,9.00
2022-11-11T08:24:48.439Z,5.60
2022-11-11T08:26:29.796Z,8.33
2022-11-11T08:28:58.436Z,7.77
2022-11-11T08:31:26.606Z,6.40
2022-11-11T08:33:54.661Z,5.33
2022-11-11T08:36:23.539Z,15.33
2022-11-11T08:38:51.804Z,6.00
2022-11-11T08:41:21.516Z,7.83
2022-11-11T08:43:53.823Z,4.67
2022-11-11T08:46:22.099Z,3.00
2022-11-11T08:48:50.173Z,5.80
2022-11-11T08:51:18.891Z,6.27
2022-11-11T08:53:46.902Z,10.20
2022-11-11T08:56:14.920Z,14.20
2022-11-11T08:58:43.196Z,89.40
2022-11-11T09:01:15.941Z,40.57
2022-11-11T09:03:46.048Z,52.40
2022-11-11T09:06:14.217Z,173.37
2022-11-11T09:08:44.223Z,95.07
2022-11-11T09:11:12.448Z,224.70
2022-11-11T09:13:41.611Z,201.47
2022-11-11T09:16:10.692Z,319.10
2022-11-11T09:18:40.250Z,157.27
2022-11-11T09:21:08.928Z,42.93
2022-11-11T09:23:36.982Z,89.17
2022-11-11T09:26:07.616Z,36.10
2022-11-11T09:28:36.162Z,100.50
2022-11-11T09:31:37.414Z,145.90
2022-11-11T09:33:53.749Z,49.10
2022-11-11T09:36:22.486Z,106.30
2022-11-11T09:38:50.450Z,25.27
2022-11-11T09:41:23.358Z,47.33
2022-11-11T09:43:57.389Z,62.83
2022-11-11T09:46:38.256Z,34.63
2022-11-11T09:49:39.879Z,33.77
2022-11-11T09:52:17.313Z,13.43
2022-11-11T09:54:51.867Z,26.27
2022-11-11T09:57:29.385Z,13.20
2022-11-11T10:00:01.199Z,70.13
2022-11-11T10:02:36.728Z,20.67
2022-11-11T10:05:12.282Z,23.13
2022-11-11T10:07:46.010Z,14.57
2022-11-11T10:10:31.023Z,17.30
2022-11-11T10:13:00.046Z,20.47
2022-11-11T10:15:46.552Z,79.93
2022-11-11T10:18:33.151Z,11.87
2022-11-11T10:21:06.890Z,10.27
2022-11-11T10:23:38.436Z,11.63
2022-11-11T10:26:17.236Z,21.37
2022-11-11T10:28:46.067Z,23.57
2022-11-11T10:31:18.881Z,5.67
2022-11-11T10:33:52.411Z,12.03
2022-11-11T10:36:25.511Z,14.57
2022-11-11T10:38:59.788Z,6.10
2022-11-11T10:41:35.058Z,12.63
2022-11-11T10:44:03.062Z,12.27
2022-11-11T10:46:40.726Z,14.33
2022-11-11T10:49:13.359Z,7.17
2022-11-11T10:51:48.614Z,7.23
2022-11-11T10:54:20.617Z,5.97
2022-11-11T10:56:58.890Z,10.43
2022-11-11T10:59:35.494Z,8.17
2022-11-11T11:02:11.943Z,6.33
2022-11-11T11:04:47.794Z,7.70
2022-11-11T11:07:23.962Z,8.13
2022-11-11T11:09:59.188Z,6.30
2022-11-11T11:12:35.580Z,6.43
2022-11-11T11:15:10.048Z,9.30
2022-11-11T11:17:43.814Z,8.20
2022-11-11T11:20:15.916Z,8.37
2022-11-11T11:22:51.673Z,10.27
2022-11-11T11:25:20.902Z,7.50
2022-11-11T11:27:52.791Z,8.00
2022-11-11T11:30:24.459Z,4.73
2022-11-11T11:32:59.600Z,9.40
2022-11-11T11:35:37.424Z,11.30
2022-11-11T11:38:09.074Z,10.07
2022-11-11T11:40:51.936Z,9.03
2022-11-11T11:43:33.709Z,8.40
2022-11-11T11:46:08.332Z,7.97
2022-11-11T11:48:53.750Z,14.13
2022-11-11T11:51:37.132Z,7.80
2022-11-11T11:54:23.152Z,9.50
2022-11-11T11:56:55.760Z,12.37
2022-11-11T11:59:34.868Z,13.20
2022-11-11T12:02:23.055Z,12.43
2022-11-11T12:05:21.743Z,16.30
2022-11-11T12:08:10.884Z,11.23
2022-11-11T12:10:49.222Z,14.50
2022-11-11T12:13:31.648Z,22.83
2022-11-11T12:16:13.914Z,18.13
2022-11-11T12:19:11.474Z,13.50
2022-11-11T12:21:49.114Z,10.40
2022-11-11T12:24:36.016Z,150.00
2022-11-11T12:27:16.111Z,33.43
2022-11-11T12:30:01.204Z,20.77
2022-11-11T12:32:48.891Z,28.30
2022-11-11T12:35:42.644Z,157.47
2022-11-11T12:38:44.341Z,33.10
2022-11-11T12:41:25.068Z,27.07
2022-11-11T12:44:05.220Z,18.13
2022-11-11T12:47:01.355Z,96.43
2022-11-11T12:49:47.699Z,21.07
2022-11-11T12:52:30.495Z,23.70
2022-11-11T12:55:19.989Z,33.93
2022-11-11T12:58:08.126Z,52.03
2022-11-11T13:00:45.858Z,37.17
2022-11-11T13:03:35.794Z,31.97
2022-11-11T13:06:15.906Z,26.90
2022-11-11T13:09:05.746Z,27.57
2022-11-11T13:11:48.525Z,36.80
2022-11-11T13:14:42.013Z,37.90
2022-11-11T13:17:14.681Z,26.57
2022-11-11T13:19:47.447Z,26.60
2022-11-11T13:22:23.758Z,26.70
2022-11-11T13:24:53.807Z,41.10
2022-11-11T13:27:37.077Z,34.27
2022-11-11T13:30:44.131Z,26.93
2022-11-11T13:33:24.083Z,20.33
2022-11-11T13:35:56.415Z,23.83
2022-11-11T13:38:32.249Z,25.70
2022-11-11T13:41:05.194Z,32.70
2022-11-11T13:43:37.609Z,24.17
2022-11-11T13:46:07.795Z,31.40
2022-11-11T13:48:40.583Z,38.80
2022-11-11T13:51:25.330Z,45.10
2022-11-11T13:53:53.409Z,47.17
2022-11-11T13:56:27.920Z,39.90
2022-11-11T13:58:57.578Z,38.70
2022-11-11T14:01:28.623Z,45.83
2022-11-11T14:04:05.078Z,54.57
2022-11-11T14:06:53.274Z,48.43
2022-11-11T14:10:02.553Z,48.03
2022-11-11T14:12:40.971Z,35.10
2022-11-11T14:15:52.719Z,34.70
2022-11-11T14:18:39.393Z,40.83
2022-11-11T14:21:10.984Z,29.30
2022-11-11T14:23:42.215Z,26.40
2022-11-11T14:26:30.152Z,27.63
2022-11-11T14:29:04.421Z,36.23
2022-11-11T14:32:12.753Z,40.97
2022-11-11T14:34:59.793Z,32.00
2022-11-11T14:37:52.766Z,39.87
2022-11-11T14:40:27.118Z,50.33
2022-11-11T14:42:55.307Z,39.17
2022-11-11T14:45:54.423Z,28.00
2022-11-11T14:48:56.383Z,20.57
2022-11-11T14:51:53.804Z,30.03
2022-11-11T14:54:56.855Z,44.50
2022-11-11T14:57:30.150Z,32.53
2022-11-11T14:59:59.216Z,39.97
2022-11-11T15:02:32.722Z,41.27
2022-11-11T15:05:02.758Z,40.53
2022-11-11T15:07:54.962Z,30.13
2022-11-11T15:10:58.752Z,41.70
2022-11-11T15:14:10.571Z,48.10
2022-11-11T15:17:04.325Z,65.23
2022-11-11T15:19:48.205Z,57.07
2022-11-11T15:22:39.936Z,27.17
2022-11-11T15:25:30.071Z,42.80
2022-11-11T15:28:09.626Z,164.60
2022-11-11T15:31:02.828Z,42.77
2022-11-11T15:33:46.105Z,28.57
2022-11-11T15:36:26.064Z,41.07
2022-11-11T15:38:54.565Z,66.57
2022-11-11T15:41:32.205Z,69.03
2022-11-11T15:44:09.225Z,88.93
2022-11-11T15:46:43.059Z,87.37
2022-11-11T15:49:15.857Z,369.20
2022-11-11T15:51:43.914Z,111.57
2022-11-11T15:54:23.299Z,68.70
2022-11-11T15:56:51.298Z,244.57
2022-11-11T15:59:25.606Z,136.23
2022-11-11T16:01:54.260Z,104.33
2022-11-11T16:04:54.514Z,131.17
2022-11-11T16:07:21.064Z,167.10
2022-11-11T16:09:49.159Z,83.23
2022-11-11T16:12:23.400Z,79.87
2022-11-11T16:14:55.847Z,50.77
2022-11-11T16:17:32.638Z,146.73
2022-11-11T16:20:06.825Z,98.03
2022-11-11T16:22:39.175Z,72.27
2022-11-11T16:25:14.469Z,67.40
2022-11-11T16:27:42.601Z,38.00
2022-11-11T16:30:22.460Z,107.50
2022-11-11T16:32:50.434Z,82.37
2022-11-11T16:35:27.699Z,168.00
2022-11-11T16:37:56.694Z,206.60
2022-11-11T16:40:38.538Z,186.83
2022-11-11T16:43:21.537Z,147.23
2022-11-11T16:45:56.431Z,194.23
2022-11-11T16:48:48.437Z,109.67
2022-11-11T16:51:23.277Z,108.67
2022-11-11T16:54:07.229Z,191.47
2022-11-11T16:56:36.817Z,235.13
2022-11-11T16:59:11.501Z,329.07
2022-11-11T17:01:44.392Z,247.00
2022-11-11T17:04:13.288Z,265.53
2022-11-11T17:06:55.763Z,157.10
2022-11-11T17:09:40.482Z,183.63
2022-11-11T17:12:09.871Z,243.50
2022-11-11T17:14:39.960Z,146.27
2022-11-11T17:17:11.480Z,144.80
2022-11-11T17:19:39.458Z,94.57
2022-11-11T17:22:13.398Z,55.63
2022-11-11T17:24:41.755Z,39.57
2022-11-11T17:27:10.733Z,53.37
2022-11-11T17:29:39.315Z,51.40
2022-11-11T17:32:09.065Z,43.07
2022-11-11T17:34:37.393Z,50.20
2022-11-11T17:37:05.432Z,64.67
2022-11-11T17:39:33.424Z,41.60
2022-11-11T17:42:01.373Z,52.03
2022-11-11T17:44:29.359Z,59.87
2022-11-11T17:46:57.351Z,46.13
2022-11-11T17:49:57.019Z,43.93
2022-11-11T17:52:14.660Z,100.63
2022-11-11T17:54:43.019Z,48.90
2022-11-11T17:57:11.518Z,55.20
2022-11-11T17:59:39.987Z,60.27
2022-11-11T18:02:09.499Z,64.83
2022-11-11T18:04:38.846Z,75.07
2022-11-11T18:07:06.941Z,71.43
2022-11-11T18:09:34.949Z,49.40
2022-11-11T18:12:02.977Z,96.33
2022-11-11T18:14:30.951Z,42.60
2022-11-11T18:16:58.901Z,62.53
2022-11-11T18:19:26.790Z,104.80
2022-11-11T18:21:56.090Z,65.73
2022-11-11T18:24:24.017Z,43.43
2022-11-11T18:26:51.950Z,94.80
2022-11-11T18:29:19.931Z,49.77
2022-11-11T18:31:55.773Z,55.60
2022-11-11T18:34:25.014Z,113.63
2022-11-11T18:36:54.819Z,98.23
2022-11-11T18:39:22.907Z,81.40
2022-11-11T18:41:51.215Z,100.37
2022-11-11T18:44:19.187Z,184.13
2022-11-11T18:46:47.192Z,110.53
2022-11-11T18:49:18.220Z,87.03
2022-11-11T18:51:47.577Z,96.20
2022-11-11T18:54:17.115Z,135.00
2022-11-11T18:56:45.112Z,99.83
2022-11-11T18:59:13.237Z,94.40
2022-11-11T19:01:42.486Z,88.13
2022-11-11T19:04:11.981Z,129.60
2022-11-11T19:06:41.466Z,127.30
2022-11-11T19:09:11.746Z,83.33
2022-11-11T19:11:43.693Z,50.43
2022-11-11T19:14:13.125Z,165.87
2022-11-11T19:16:42.369Z,117.03
2022-11-11T19:19:10.526Z,183.63
2022-11-11T19:21:40.580Z,190.20
2022-11-11T19:24:11.398Z,106.67
2022-11-11T19:26:42.091Z,77.33
2022-11-11T19:29:10.891Z,156.00
2022-11-11T19:31:38.940Z,77.17
2022-11-11T19:34:07.073Z,61.23
2022-11-11T19:36:36.476Z,101.90
2022-11-11T19:39:05.629Z,64.83
2022-11-11T19:41:33.847Z,147.70
2022-11-11T19:44:03.185Z,135.30
2022-11-11T19:46:31.221Z,34.60
2022-11-11T19:49:00.503Z,65.93
2022-11-11T19:51:30.187Z,38.60
2022-11-11T19:53:58.610Z,40.50
2022-11-11T19:56:31.361Z,39.43
2022-11-11T19:58:59.732Z,37.30
2022-11-11T20:01:31.509Z,27.03
2022-11-11T20:03:59.664Z,34.43
2022-11-11T20:06:30.257Z,27.67
2022-11-11T20:09:01.151Z,25.33
2022-11-11T20:11:30.736Z,27.90
2022-11-11T20:13:59.499Z,38.73
2022-11-11T20:16:28.898Z,31.27
2022-11-11T20:18:57.537Z,38.23
2022-11-11T20:21:26.876Z,26.63
2022-11-11T20:23:55.686Z,35.67
2022-11-11T20:26:24.397Z,109.60
2022-11-11T20:28:59.488Z,144.27
2022-11-11T20:31:29.071Z,93.73
2022-11-11T20:33:57.937Z,92.60
2022-11-11T20:36:25.941Z,56.40
2022-11-11T20:38:53.997Z,123.67
2022-11-11T20:41:22.503Z,58.10
2022-11-11T20:43:50.730Z,47.77
2022-11-11T20:46:20.952Z,49.83
2022-11-11T20:48:53.853Z,52.27
2022-11-11T20:51:24.374Z,53.73
2022-11-11T20:53:54.876Z,43.73
2022-11-11T20:56:24.417Z,45.13
2022-11-11T20:58:53.646Z,56.80
2022-11-11T21:01:25.115Z,42.23
2022-11-11T21:03:57.228Z,49.60
2022-11-11T21:06:26.937Z,81.23
2022-11-11T21:08:55.422Z,68.63
2022-11-11T21:11:25.084Z,108.83
2022-11-11T21:13:55.771Z,94.93
2022-11-11T21:16:26.487Z,253.60
2022-11-11T21:18:56.979Z,80.90
2022-11-11T21:21:27.156Z,128.10
2022-11-11T21:24:00.577Z,77.40
2022-11-11T21:26:28.941Z,88.77
2022-11-11T21:28:57.237Z,113.97
2022-11-11T21:31:28.063Z,135.63
2022-11-11T21:33:59.261Z,351.27
2022-11-11T21:36:29.787Z,225.23
2022-11-11T21:39:02.158Z,143.17
2022-11-11T21:41:32.441Z,385.83
2022-11-11T21:44:00.825Z,371.40
2022-11-11T21:46:33.343Z,502.97
2022-11-11T21:49:05.439Z,419.73
2022-11-11T21:51:35.954Z,320.57
2022-11-11T21:54:06.860Z,266.77
2022-11-11T21:56:37.557Z,407.50
2022-11-11T21:59:08.008Z,194.77
2022-11-11T22:01:38.991Z,217.43
2022-11-11T22:04:13.390Z,271.57
2022-11-11T22:06:41.594Z,89.10
2022-11-11T22:09:10.092Z,230.77
2022-11-11T22:11:38.553Z,226.80
2022-11-11T22:14:07.118Z,52.83
2022-11-11T22:16:37.672Z,51.00
2022-11-11T22:19:12.644Z,105.00
2022-11-11T22:21:44.209Z,138.03
2022-11-11T22:24:12.884Z,44.17
2022-11-11T22:26:44.271Z,73.47
2022-11-11T22:29:14.384Z,93.63
2022-11-11T22:31:44.357Z,162.13
2022-11-11T22:34:15.602Z,133.50
2022-11-11T22:36:44.139Z,186.20
2022-11-11T22:39:12.652Z,107.17
2022-11-11T22:41:41.854Z,156.97
2022-11-11T22:44:09.967Z,154.57
2022-11-11T22:46:38.463Z,479.67
2022-11-11T22:49:11.738Z,398.17
2022-11-11T22:51:43.692Z,427.50
2022-11-11T22:54:19.984Z,368.93
2022-11-11T22:56:48.383Z,182.27
2022-11-11T22:59:16.356Z,82.83
2022-11-11T23:01:44.455Z,142.60
2022-11-11T23:04:13.900Z,163.27
2022-11-11T23:06:43.355Z,402.57
2022-11-11T23:09:12.760Z,33.50
2022-11-11T23:11:41.676Z,330.43
2022-11-11T23:14:15.325Z,196.53
2022-11-11T23:16:43.685Z,70.67
2022-11-11T23:19:11.643Z,233.07
2022-11-11T23:21:39.609Z,49.10
2022-11-11T23:24:10.170Z,86.50
2022-11-11T23:26:38.205Z,230.57
2022-11-11T23:29:06.231Z,209.00
2022-11-11T23:31:34.343Z,128.13
2022-11-11T23:34:04.030Z,289.63
2022-11-11T23:36:35.698Z,162.60
2022-11-11T23:39:03.998Z,150.33
2022-11-11T23:41:33.474Z,92.83
2022-11-11T23:44:01.487Z,104.87
2022-11-11T23:46:29.494Z,322.40
2022-11-11T23:48:57.489Z,181.47
2022-11-11T23:51:25.472Z,179.87
2022-11-11T23:53:53.479Z,217.87
2022-11-11T23:56:21.483Z,173.77
2022-11-11T23:58:50.813Z,405.57
